Terminal Aerodrome Forecast
Issued by NWS

Home | Current Version | Previous Version | Text Only | Print | Product List | Glossary On
Versions: 1 2 3 4 5 6 7 8 9 10 11 12 13 14 15 16 17
000
FTUS41 KCAR 202300
TAFFVE
TAF
KFVE 202320Z 2100/2124 17004KT P6SM BKN090
     FM211600 22008KT P6SM OVC045
     FM211900 25009KT P6SM BKN035=

USA.gov is the U.S. government's official web portal to all federal, state and local government web resources and services.